Viking Queen — WDB9919 — position and weather

sailwx.info

Track history (hours):
 
Tides and Currents Weather Stations Pressure Air Temp Water Temp Dewpoint Dewpoint Depression Visibility Wind Speed Wind Dir Waves Ship Positions

Viking Queen

Owner: American River Transportation Company, St Louis, MO. More information available from US FCC via Universal Licensing System and Coast Guard Vessel Documentation Center.

Last reported at 2016-Aug-24 17:33 UTC. Time now 2016-Aug-28 20:42 UTC.
Position N 32°46' W 091°09'.

; draft 3.2 m.

Type: Towing. MMSI: 366985050.

Date/timePositionNaut miles runAvg speedWind from/ knotsBaromVisibWave heightAir tempDewpointWater temp
2016-Aug-24 17:33N 32°46' W 091°09'5 2.7
2016-Aug-24 15:32N 32°43' W 091°03'5 4.4
2016-Aug-24 14:29N 32°40' W 091°07'4 4.1
2016-Aug-24 13:33N 32°37' W 091°09'5 4.6
2016-Aug-24 12:34N 32°33' W 091°06'5 4.8
2016-Aug-24 11:33N 32°28' W 091°06'5 5.2
2016-Aug-24 10:33N 32°25' W 091°01'3 3.2
2016-Aug-24 09:33N 32°22' W 091°00'4 3.9
2016-Aug-24 08:34N 32°21' W 090°56'3 3.2
2016-Aug-24 07:33N 32°18' W 090°56'5 4.7
2016-Aug-24 06:34N 32°14' W 090°59'8 3.8
2016-Aug-24 04:33N 32°08' W 091°04'3 2.6
2016-Aug-24 03:31N 32°05' W 091°04'5 4.8
2016-Aug-24 02:33N 32°00' W 091°05'6 5.0
2016-Aug-24 01:25N 31°58' W 091°11'60 4.0
2016-Aug-23 10:21N 31°01' W 091°35'  
2016-Aug-20 14:10N 31°52' W 091°16'8 7.9
2016-Aug-20 13:13N 31°58' W 091°11'5 7.8
2016-Aug-20 12:33N 31°60' W 091°05'7 7.1
2016-Aug-20 11:33N 32°07' W 091°07'6 6.2
2016-Aug-20 10:34N 32°10' W 091°00'8 7.9
2016-Aug-20 09:34N 32°17' W 090°56'4 3.9
2016-Aug-20 08:34N 32°21' W 090°57'6 6.5
2016-Aug-20 07:33N 32°26' W 091°02'7 6.9
2016-Aug-20 06:33N 32°32' W 091°06'8 7.7
2016-Aug-20 05:33N 32°40' W 091°08'  
Track history (hours):
 
Tides and Currents Weather Stations Pressure Air Temp Water Temp Dewpoint Dewpoint Depression Visibility Wind Speed Wind Dir Waves Ship Positions

Viking Queen

Owner: American River Transportation Company, St Louis, MO. More information available from US FCC via Universal Licensing System and Coast Guard Vessel Documentation Center.

Last reported at 2016-Aug-24 17:33 UTC. Time now 2016-Aug-28 20:42 UTC.
Position N 32°46' W 091°09'.

; draft 3.2 m.

Type: Towing. MMSI: 366985050.

Date/timePositionNaut miles runAvg speedWind from/ knotsBaromVisibWave heightAir tempDewpointWater temp
2016-Aug-24 17:33N 32°46' W 091°09'5 2.7
2016-Aug-24 15:32N 32°43' W 091°03'5 4.4
2016-Aug-24 14:29N 32°40' W 091°07'4 4.1
2016-Aug-24 13:33N 32°37' W 091°09'5 4.6
2016-Aug-24 12:34N 32°33' W 091°06'5 4.8
2016-Aug-24 11:33N 32°28' W 091°06'5 5.2
2016-Aug-24 10:33N 32°25' W 091°01'3 3.2
2016-Aug-24 09:33N 32°22' W 091°00'4 3.9
2016-Aug-24 08:34N 32°21' W 090°56'3 3.2
2016-Aug-24 07:33N 32°18' W 090°56'5 4.7
2016-Aug-24 06:34N 32°14' W 090°59'8 3.8
2016-Aug-24 04:33N 32°08' W 091°04'3 2.6
2016-Aug-24 03:31N 32°05' W 091°04'5 4.8
2016-Aug-24 02:33N 32°00' W 091°05'6 5.0
2016-Aug-24 01:25N 31°58' W 091°11'60 4.0
2016-Aug-23 10:21N 31°01' W 091°35'  
2016-Aug-20 14:10N 31°52' W 091°16'8 7.9
2016-Aug-20 13:13N 31°58' W 091°11'5 7.8
2016-Aug-20 12:33N 31°60' W 091°05'7 7.1
2016-Aug-20 11:33N 32°07' W 091°07'6 6.2
2016-Aug-20 10:34N 32°10' W 091°00'8 7.9
2016-Aug-20 09:34N 32°17' W 090°56'4 3.9
2016-Aug-20 08:34N 32°21' W 090°57'6 6.5
2016-Aug-20 07:33N 32°26' W 091°02'7 6.9
2016-Aug-20 06:33N 32°32' W 091°06'8 7.7
2016-Aug-20 05:33N 32°40' W 091°08'  

Dump ship's entire track history